createdAt,value
2017-06-08T00:01:30.890Z,101780.52
2017-06-08T00:03:57.141Z,101780.56
2017-06-08T00:06:23.474Z,101786.92
2017-06-08T00:08:49.779Z,101785.13
2017-06-08T00:11:16.374Z,101784.53
2017-06-08T00:13:42.767Z,101783.93
2017-06-08T00:17:36.271Z,101786.84
2017-06-08T00:20:02.550Z,101778.19
2017-06-08T00:22:28.813Z,101778.92
2017-06-08T00:24:55.083Z,101782.30
2017-06-08T00:27:21.413Z,101772.30
2017-06-08T00:29:48.478Z,101783.45
2017-06-08T00:32:14.740Z,101781.81
2017-06-08T00:34:41.051Z,101783.94
2017-06-08T00:37:07.297Z,101785.34
2017-06-08T00:39:33.658Z,101790.13
2017-06-08T00:41:59.962Z,101789.95
2017-06-08T00:44:26.291Z,101788.24
2017-06-08T00:46:52.570Z,101783.85
2017-06-08T00:49:19.568Z,101789.24
2017-06-08T00:51:45.837Z,101788.95
2017-06-08T00:54:12.095Z,101790.83
2017-06-08T00:56:38.344Z,101792.00
2017-06-08T00:59:04.593Z,101789.02
2017-06-08T01:01:30.823Z,101793.07
2017-06-08T01:03:57.139Z,101787.30
2017-06-08T01:06:23.503Z,101789.41
2017-06-08T01:08:49.805Z,101788.58
2017-06-08T01:11:16.092Z,101791.82
2017-06-08T01:13:42.340Z,101793.97
2017-06-08T01:17:36.335Z,101802.69
2017-06-08T01:20:02.616Z,101807.95
2017-06-08T01:22:28.871Z,101799.86
2017-06-08T01:24:55.171Z,101798.99
2017-06-08T01:27:21.440Z,101801.48
2017-06-08T01:29:47.895Z,101809.02
2017-06-08T01:32:14.183Z,101814.03
2017-06-08T01:34:40.446Z,101812.33
2017-06-08T01:37:06.711Z,101804.34
2017-06-08T01:39:33.019Z,101804.86
2017-06-08T01:41:59.283Z,101810.48
2017-06-08T01:44:25.578Z,101815.42
2017-06-08T01:46:51.928Z,101809.36
2017-06-08T01:49:18.957Z,101815.61
2017-06-08T01:51:45.222Z,101809.41
2017-06-08T01:54:11.470Z,101809.78
2017-06-08T01:56:37.859Z,101816.08
2017-06-08T01:59:04.876Z,101807.66
2017-06-08T02:01:31.177Z,101810.55
2017-06-08T02:03:57.463Z,101807.75
2017-06-08T02:06:25.180Z,101815.88
2017-06-08T02:08:51.555Z,101813.03
2017-06-08T02:11:17.826Z,101814.38
2017-06-08T02:13:44.115Z,101811.09
2017-06-08T02:17:38.306Z,101801.77
2017-06-08T02:20:04.596Z,101807.06
2017-06-08T02:22:30.899Z,101798.20
2017-06-08T02:24:57.180Z,101796.58
2017-06-08T02:27:23.509Z,101790.72
2017-06-08T02:29:49.885Z,101789.58
2017-06-08T02:32:16.127Z,101785.92
2017-06-08T02:34:42.371Z,101776.45
2017-06-08T02:37:08.649Z,101776.02
2017-06-08T02:39:34.903Z,101768.91
2017-06-08T02:42:01.158Z,101767.05
2017-06-08T02:44:27.410Z,101773.90
2017-06-08T02:46:53.735Z,101764.73
2017-06-08T02:49:20.015Z,101773.31
2017-06-08T02:51:46.280Z,101766.12
2017-06-08T02:54:12.587Z,101761.48
2017-06-08T02:56:38.851Z,101755.09
2017-06-08T02:59:05.078Z,101756.02
2017-06-08T03:01:31.356Z,101750.88
2017-06-08T03:03:57.591Z,101746.69
2017-06-08T03:06:23.969Z,101741.38
2017-06-08T03:08:50.207Z,101735.84
2017-06-08T03:11:16.455Z,101739.23
2017-06-08T03:13:42.711Z,101735.66
2017-06-08T03:17:36.731Z,101729.20
2017-06-08T03:20:02.975Z,101735.83
2017-06-08T03:22:29.232Z,101744.81
2017-06-08T03:24:55.579Z,101744.38
2017-06-08T03:27:21.818Z,101748.67
2017-06-08T03:29:48.075Z,101745.70
2017-06-08T03:32:14.307Z,101741.55
2017-06-08T03:34:40.553Z,101725.09
2017-06-08T03:37:06.937Z,101735.61
2017-06-08T03:39:33.176Z,101740.20
2017-06-08T03:41:59.448Z,101744.50
2017-06-08T03:44:32.677Z,101739.35
2017-06-08T03:46:58.909Z,101734.21
2017-06-08T03:49:25.249Z,101737.95
2017-06-08T03:51:51.507Z,101737.13
2017-06-08T03:54:17.847Z,101739.23
2017-06-08T03:56:44.095Z,101729.33
2017-06-08T03:59:10.366Z,101730.64
2017-06-08T04:01:36.620Z,101731.05
2017-06-08T04:04:02.888Z,101728.93
2017-06-08T04:06:29.128Z,101726.26
2017-06-08T04:08:55.415Z,101720.80
2017-06-08T04:11:21.671Z,101719.95
2017-06-08T04:13:47.997Z,101725.09
2017-06-08T04:17:37.976Z,101720.72
2017-06-08T04:20:04.224Z,101717.07
2017-06-08T04:22:30.627Z,101721.60
2017-06-08T04:24:56.863Z,101722.98
2017-06-08T04:27:23.136Z,101718.66
2017-06-08T04:29:49.478Z,101716.59
2017-06-08T04:32:15.723Z,101722.92
2017-06-08T04:34:41.974Z,101721.19
2017-06-08T04:37:08.240Z,101723.83
2017-06-08T04:39:34.497Z,101719.03
2017-06-08T04:42:00.805Z,101720.89
2017-06-08T04:44:27.092Z,101722.69
2017-06-08T04:46:53.371Z,101722.66
2017-06-08T04:49:19.630Z,101725.41
2017-06-08T04:51:45.862Z,101725.61
2017-06-08T04:54:12.107Z,101722.39
2017-06-08T04:56:38.695Z,101715.91
2017-06-08T04:59:04.943Z,101710.03
2017-06-08T05:01:31.173Z,101699.37
2017-06-08T05:03:57.483Z,101703.55
2017-06-08T05:06:23.755Z,101699.15
2017-06-08T05:08:50.115Z,101702.80
2017-06-08T05:11:16.379Z,101693.34
2017-06-08T05:13:42.648Z,101692.09
2017-06-08T05:17:37.769Z,101692.62
2017-06-08T05:20:04.036Z,101692.98
2017-06-08T05:22:30.320Z,101684.19
2017-06-08T05:24:56.641Z,101680.59
2017-06-08T05:27:22.891Z,101688.48
2017-06-08T05:29:49.189Z,101682.67
2017-06-08T05:32:15.450Z,101685.81
2017-06-08T05:34:41.699Z,101684.22
2017-06-08T05:37:08.203Z,101685.38
2017-06-08T05:39:34.436Z,101677.37
2017-06-08T05:42:00.687Z,101680.48
2017-06-08T05:44:26.981Z,101676.63
2017-06-08T05:46:53.270Z,101677.98
2017-06-08T05:49:19.612Z,101674.37
2017-06-08T05:51:45.841Z,101667.89
2017-06-08T05:54:12.114Z,101675.11
2017-06-08T05:56:38.389Z,101679.77
2017-06-08T05:59:04.666Z,101682.56
2017-06-08T06:01:30.914Z,101683.82
2017-06-08T06:03:57.173Z,101683.86
2017-06-08T06:06:23.452Z,101680.92
2017-06-08T06:08:49.800Z,101670.12
2017-06-08T06:11:16.068Z,101670.27
2017-06-08T06:13:42.336Z,101666.02
2017-06-08T06:17:36.447Z,101671.39
2017-06-08T06:20:02.724Z,101667.39
2017-06-08T06:22:28.987Z,101671.84
2017-06-08T06:24:55.243Z,101677.31
2017-06-08T06:27:21.532Z,101671.22
2017-06-08T06:29:47.769Z,101670.41
2017-06-08T06:32:14.027Z,101673.80
2017-06-08T06:34:40.340Z,101667.46
2017-06-08T06:37:06.692Z,101678.61
2017-06-08T06:39:32.980Z,101678.63
2017-06-08T06:41:59.223Z,101687.31
2017-06-08T06:44:25.555Z,101677.38
2017-06-08T06:46:51.797Z,101673.98
2017-06-08T06:49:18.095Z,101670.60
2017-06-08T06:51:44.334Z,101680.05
2017-06-08T06:54:10.668Z,101678.20
2017-06-08T06:56:36.892Z,101677.43
2017-06-08T06:59:03.363Z,101675.88
2017-06-08T07:01:29.609Z,101676.74
2017-06-08T07:03:55.873Z,101681.27
2017-06-08T07:06:22.135Z,101671.25
2017-06-08T07:08:48.414Z,101670.43
2017-06-08T07:11:14.662Z,101666.36
2017-06-08T07:13:40.917Z,101661.16
2017-06-08T07:17:37.204Z,101662.55
2017-06-08T07:20:03.467Z,101665.53
2017-06-08T07:22:29.720Z,101656.42
2017-06-08T07:24:56.016Z,101663.29
2017-06-08T07:27:22.322Z,101659.72
2017-06-08T07:29:48.610Z,101657.59
2017-06-08T07:32:14.878Z,101660.03
2017-06-08T07:34:41.168Z,101663.50
2017-06-08T07:37:07.418Z,101660.20
2017-06-08T07:39:33.793Z,101655.72
2017-06-08T07:42:00.031Z,101655.97
2017-06-08T07:44:26.288Z,101657.93
2017-06-08T07:46:52.527Z,101665.83
2017-06-08T07:49:18.774Z,101671.31
2017-06-08T07:51:45.146Z,101673.34
2017-06-08T07:54:11.403Z,101679.27
2017-06-08T07:56:37.650Z,101674.91
2017-06-08T07:59:03.904Z,101670.72
2017-06-08T08:01:48.570Z,101663.42
2017-06-08T08:04:14.828Z,101671.78
2017-06-08T08:06:41.091Z,101678.56
2017-06-08T08:09:07.693Z,101667.66
2017-06-08T08:11:33.981Z,101667.02
2017-06-08T08:14:00.235Z,101662.17
2017-06-08T08:17:36.471Z,101662.16
2017-06-08T08:20:02.767Z,101661.78
2017-06-08T08:22:29.095Z,101653.95
2017-06-08T08:24:55.352Z,101660.41
2017-06-08T08:27:21.587Z,101656.66
2017-06-08T08:29:47.878Z,101658.74
2017-06-08T08:32:14.160Z,101654.61
2017-06-08T08:34:40.583Z,101651.73
2017-06-08T08:37:06.943Z,101653.45
2017-06-08T08:39:33.195Z,101655.33
2017-06-08T08:41:59.483Z,101654.31
2017-06-08T08:44:25.730Z,101650.83
2017-06-08T08:46:51.988Z,101652.76
2017-06-08T08:49:18.308Z,101656.26
2017-06-08T08:51:44.589Z,101647.38
2017-06-08T08:54:11.094Z,101649.16
2017-06-08T08:56:37.352Z,101649.41
2017-06-08T08:59:03.623Z,101655.78
2017-06-08T09:01:29.950Z,101658.56
2017-06-08T09:03:56.208Z,101642.80
2017-06-08T09:06:22.512Z,101639.09
2017-06-08T09:08:48.867Z,101646.20
2017-06-08T09:11:15.119Z,101637.52
2017-06-08T09:13:41.364Z,101636.80
2017-06-08T09:17:37.316Z,101629.36
2017-06-08T09:20:03.684Z,101627.21
2017-06-08T09:22:29.941Z,101623.16
2017-06-08T09:24:56.190Z,101627.98
2017-06-08T09:27:22.430Z,101622.70
2017-06-08T09:29:55.649Z,101609.07
2017-06-08T09:32:21.909Z,101620.73
2017-06-08T09:34:48.244Z,101619.72
2017-06-08T09:37:14.539Z,101610.87
2017-06-08T09:39:40.789Z,101614.34
2017-06-08T09:42:07.066Z,101610.11
2017-06-08T09:44:33.323Z,101612.70
2017-06-08T09:46:59.627Z,101593.44
2017-06-08T09:49:25.998Z,101597.48
2017-06-08T09:51:52.296Z,101603.42
2017-06-08T09:54:18.573Z,101600.05
2017-06-08T09:56:44.862Z,101596.76
2017-06-08T09:59:11.132Z,101599.54
2017-06-08T10:01:37.499Z,101602.75
2017-06-08T10:04:03.818Z,101606.20
2017-06-08T10:06:30.044Z,101592.31
2017-06-08T10:08:56.284Z,101599.02
2017-06-08T10:11:22.645Z,101590.23
2017-06-08T10:13:48.911Z,101593.66
2017-06-08T10:17:36.606Z,101596.39
2017-06-08T10:20:02.890Z,101596.23
2017-06-08T10:22:29.164Z,101592.23
2017-06-08T10:24:55.422Z,101596.06
2017-06-08T10:27:21.701Z,101598.22
2017-06-08T10:29:48.075Z,101595.66
2017-06-08T10:32:14.352Z,101598.52
2017-06-08T10:34:40.599Z,101591.96
2017-06-08T10:37:06.827Z,101592.26
2017-06-08T10:39:33.075Z,101587.06
2017-06-08T10:41:59.403Z,101584.16
2017-06-08T10:44:25.669Z,101585.39
2017-06-08T10:46:51.964Z,101590.88
2017-06-08T10:49:18.206Z,101583.53
2017-06-08T10:51:44.522Z,101582.87
2017-06-08T10:54:10.781Z,101583.80
2017-06-08T10:56:37.043Z,101586.28
2017-06-08T10:59:03.400Z,101582.30
2017-06-08T11:01:29.679Z,101579.75
2017-06-08T11:03:56.013Z,101583.63
2017-06-08T11:06:22.305Z,101572.08
2017-06-08T11:08:48.622Z,101564.32
2017-06-08T11:11:14.962Z,101565.08
2017-06-08T11:13:41.222Z,101563.53
2017-06-08T11:17:37.635Z,101564.92
2017-06-08T11:20:03.923Z,101555.05
2017-06-08T11:22:30.192Z,101559.45
2017-06-08T11:24:56.449Z,101554.08
2017-06-08T11:27:22.688Z,101545.91
2017-06-08T11:29:48.937Z,101553.87
2017-06-08T11:32:15.484Z,101540.94
2017-06-08T11:44:26.794Z,101524.61
2017-06-08T11:46:53.058Z,101518.44
2017-06-08T11:49:19.381Z,101515.06
2017-06-08T11:51:45.651Z,101509.07
2017-06-08T11:54:11.916Z,101505.70
2017-06-08T11:56:38.314Z,101506.22
2017-06-08T11:59:04.574Z,101497.05
2017-06-08T12:01:30.845Z,101493.34
2017-06-08T12:03:57.126Z,101497.69
2017-06-08T12:06:23.373Z,101496.64
2017-06-08T12:08:49.648Z,101504.89
2017-06-08T12:11:15.928Z,101497.20
2017-06-08T12:13:42.284Z,101483.34
2017-06-08T12:17:37.643Z,101492.09
2017-06-08T12:20:03.946Z,101486.92
2017-06-08T12:22:36.328Z,101488.69
2017-06-08T12:25:02.687Z,101483.08
2017-06-08T12:27:28.964Z,101468.17
2017-06-08T12:29:55.272Z,101468.70
2017-06-08T12:32:21.521Z,101459.55
2017-06-08T12:34:47.791Z,101459.61
2017-06-08T12:37:14.067Z,101465.28
2017-06-08T12:39:41.063Z,101457.36
2017-06-08T12:42:07.444Z,101454.34
2017-06-08T12:44:34.482Z,101454.48
2017-06-08T12:47:01.505Z,101434.53
2017-06-08T12:49:27.762Z,101430.96
2017-06-08T12:51:54.047Z,101417.95
2017-06-08T12:54:20.378Z,101417.67
2017-06-08T12:56:46.630Z,101424.55
2017-06-08T12:59:12.868Z,101408.88
2017-06-08T13:01:39.201Z,101411.12
2017-06-08T13:04:05.472Z,101415.72
2017-06-08T13:06:31.748Z,101413.64
2017-06-08T13:08:58.033Z,101408.78
2017-06-08T13:11:24.323Z,101412.38
2017-06-08T13:13:51.318Z,101413.34
2017-06-08T13:17:37.659Z,101411.34
2017-06-08T13:20:03.939Z,101402.91
2017-06-08T13:22:30.201Z,101399.90
2017-06-08T13:24:56.458Z,101405.49
2017-06-08T13:27:22.721Z,101402.80
2017-06-08T13:29:49.109Z,101401.81
2017-06-08T13:32:15.372Z,101390.11
2017-06-08T13:34:41.645Z,101378.27
2017-06-08T13:37:07.899Z,101385.50
2017-06-08T13:39:34.486Z,101381.91
2017-06-08T13:42:00.737Z,101390.72
2017-06-08T13:44:27.003Z,101382.58
2017-06-08T13:46:53.719Z,101381.39
2017-06-08T13:49:19.997Z,101370.05
2017-06-08T13:51:46.270Z,101365.68
2017-06-08T13:54:12.545Z,101372.52
2017-06-08T13:56:38.854Z,101373.60
2017-06-08T13:59:05.225Z,101367.44
2017-06-08T14:01:31.503Z,101365.72
2017-06-08T14:03:57.781Z,101358.57
2017-06-08T14:06:24.059Z,101362.30
2017-06-08T14:08:50.328Z,101374.39
2017-06-08T14:11:16.678Z,101365.92
2017-06-08T14:13:42.965Z,101353.17
2017-06-08T14:17:37.587Z,101352.80
2017-06-08T14:20:04.005Z,101345.02
2017-06-08T14:22:30.313Z,101341.09
2017-06-08T14:24:56.563Z,101350.15
2017-06-08T14:27:22.820Z,101353.09
2017-06-08T14:29:49.293Z,101345.37
2017-06-08T14:32:15.563Z,101352.20
2017-06-08T14:34:41.924Z,101345.22
2017-06-08T14:37:08.242Z,101358.48
2017-06-08T14:39:34.592Z,101353.32
2017-06-08T14:42:00.909Z,101352.19
2017-06-08T14:44:27.173Z,101341.38
2017-06-08T14:46:53.439Z,101342.50
2017-06-08T14:49:19.683Z,101350.72
2017-06-08T14:51:45.960Z,101354.22
2017-06-08T14:54:12.296Z,101361.63
2017-06-08T14:56:39.312Z,101364.08
2017-06-08T14:59:05.563Z,101363.95
2017-06-08T15:01:31.861Z,101367.07
2017-06-08T15:03:58.110Z,101360.11
2017-06-08T15:06:24.572Z,101356.00
2017-06-08T15:08:51.563Z,101357.16
2017-06-08T15:11:17.834Z,101368.25
2017-06-08T15:13:44.133Z,101355.59
2017-06-08T15:17:36.386Z,101356.97
2017-06-08T15:20:02.655Z,101362.72
2017-06-08T15:22:28.907Z,101362.20
2017-06-08T15:24:55.152Z,101349.02
2017-06-08T15:27:21.411Z,101353.02
2017-06-08T15:29:47.707Z,101365.80
2017-06-08T15:32:13.973Z,101354.56
2017-06-08T15:34:40.308Z,101350.84
2017-06-08T15:37:06.559Z,101357.80
2017-06-08T15:39:33.604Z,101342.13
2017-06-08T15:42:00.594Z,101351.47
2017-06-08T15:44:26.880Z,101356.67
2017-06-08T15:46:54.003Z,101337.55
2017-06-08T15:49:20.276Z,101335.16
2017-06-08T15:51:46.550Z,101327.93
2017-06-08T15:54:12.809Z,101324.70
2017-06-08T15:56:39.953Z,101318.35
2017-06-08T15:59:06.959Z,101328.53
2017-06-08T16:01:33.228Z,101323.47
2017-06-08T16:04:00.284Z,101322.10
2017-06-08T16:06:27.303Z,101315.48
2017-06-08T16:08:53.660Z,101304.27
2017-06-08T16:11:19.895Z,101307.09
2017-06-08T16:13:46.211Z,101306.05
2017-06-08T16:17:36.021Z,101312.13
2017-06-08T16:20:02.371Z,101314.57
2017-06-08T16:22:28.736Z,101318.16
2017-06-08T16:24:54.995Z,101321.73
2017-06-08T16:27:21.973Z,101319.98
2017-06-08T16:29:48.220Z,101323.09
2017-06-08T16:32:14.496Z,101317.36
2017-06-08T16:34:41.513Z,101312.23
2017-06-08T16:37:07.987Z,101314.64
2017-06-08T16:39:34.293Z,101312.19
2017-06-08T16:42:00.651Z,101304.30
2017-06-08T16:44:26.895Z,101308.25
2017-06-08T16:46:53.164Z,101312.91
2017-06-08T16:49:19.510Z,101308.57
2017-06-08T16:51:45.751Z,101311.69
2017-06-08T16:54:12.008Z,101303.12
2017-06-08T16:56:38.270Z,101303.70
2017-06-08T16:59:04.524Z,101302.28
2017-06-08T17:01:30.779Z,101309.44
2017-06-08T17:03:57.053Z,101301.09
2017-06-08T17:06:23.520Z,101312.77
2017-06-08T17:08:49.793Z,101315.13
2017-06-08T17:11:16.018Z,101315.05
2017-06-08T17:13:42.272Z,101318.13
2017-06-08T17:17:37.804Z,101322.69
2017-06-08T17:20:04.053Z,101317.98
2017-06-08T17:22:30.368Z,101317.85
2017-06-08T17:24:56.661Z,101312.83
2017-06-08T17:27:22.915Z,101316.53
2017-06-08T17:29:49.264Z,101314.00
2017-06-08T17:32:15.516Z,101309.20
2017-06-08T17:34:41.860Z,101313.23
2017-06-08T17:37:08.116Z,101311.89
2017-06-08T17:39:34.516Z,101313.41
2017-06-08T17:42:00.845Z,101314.80
2017-06-08T17:44:27.129Z,101313.94
2017-06-08T17:46:53.500Z,101314.25
2017-06-08T17:49:19.777Z,101317.06
2017-06-08T17:51:46.079Z,101315.64
2017-06-08T17:54:12.331Z,101310.10
2017-06-08T17:56:38.583Z,101302.23
2017-06-08T17:59:05.076Z,101307.77
2017-06-08T18:01:31.674Z,101306.65
2017-06-08T18:03:57.972Z,101304.73
2017-06-08T18:06:24.209Z,101294.38
2017-06-08T18:08:50.500Z,101296.88
2017-06-08T18:17:37.032Z,101283.43
2017-06-08T18:20:03.415Z,101280.89
2017-06-08T18:22:29.707Z,101291.97
2017-06-08T18:24:55.950Z,101286.04
2017-06-08T18:27:22.219Z,101291.53
2017-06-08T18:29:48.492Z,101289.23
2017-06-08T18:32:14.884Z,101290.83
2017-06-08T18:34:41.164Z,101285.36
2017-06-08T18:37:07.415Z,101294.81
2017-06-08T18:39:33.715Z,101307.46
2017-06-08T18:41:59.973Z,101300.28
2017-06-08T18:44:26.268Z,101302.28
2017-06-08T18:46:52.567Z,101303.59
2017-06-08T18:49:18.902Z,101305.48
2017-06-08T18:51:45.284Z,101302.21
2017-06-08T18:54:11.555Z,101296.03
2017-06-08T18:56:37.805Z,101300.72
2017-06-08T18:59:04.045Z,101296.62
2017-06-08T19:01:30.292Z,101299.11
2017-06-08T19:03:56.659Z,101307.69
2017-06-08T19:06:22.917Z,101312.25
2017-06-08T19:08:49.195Z,101306.00
2017-06-08T19:11:15.439Z,101313.19
2017-06-08T19:13:41.724Z,101322.31
2017-06-08T19:17:36.808Z,101324.64
2017-06-08T19:20:03.077Z,101322.28
2017-06-08T19:22:29.322Z,101323.34
2017-06-08T19:24:55.565Z,101330.50
2017-06-08T19:27:21.907Z,101329.95
2017-06-08T19:29:48.181Z,101341.61
2017-06-08T19:32:14.416Z,101336.36
2017-06-08T19:34:40.664Z,101343.56
2017-06-08T19:37:06.923Z,101342.28
2017-06-08T19:39:33.158Z,101348.87
2017-06-08T19:42:00.266Z,101340.11
2017-06-08T19:44:26.931Z,101347.20
2017-06-08T19:46:53.243Z,101351.38
2017-06-08T19:49:19.512Z,101358.59
2017-06-08T19:51:45.813Z,101363.98
2017-06-08T19:54:12.096Z,101361.16
2017-06-08T19:56:38.480Z,101364.84
2017-06-08T19:59:04.748Z,101359.52
2017-06-08T20:01:31.109Z,101358.55
2017-06-08T20:03:57.354Z,101361.25
2017-06-08T20:06:23.624Z,101357.81
2017-06-08T20:08:49.903Z,101360.80
2017-06-08T20:11:16.153Z,101365.48
2017-06-08T20:13:42.420Z,101361.43
2017-06-08T20:17:35.956Z,101366.39
2017-06-08T20:20:02.235Z,101352.05
2017-06-08T20:22:28.509Z,101351.37
2017-06-08T20:24:54.834Z,101350.83
2017-06-08T20:27:21.077Z,101349.28
2017-06-08T20:29:47.387Z,101352.19
2017-06-08T20:32:13.667Z,101343.86
2017-06-08T20:34:39.965Z,101339.08
2017-06-08T20:37:06.365Z,101338.86
2017-06-08T20:39:32.687Z,101334.16
2017-06-08T20:41:58.932Z,101331.45
2017-06-08T20:44:25.187Z,101339.68
2017-06-08T20:46:51.648Z,101334.54
2017-06-08T20:49:17.913Z,101345.04
2017-06-08T20:51:44.189Z,101340.44
2017-06-08T20:54:10.436Z,101339.08
2017-06-08T20:56:37.003Z,101338.56
2017-06-08T20:59:03.370Z,101337.40
2017-06-08T21:01:29.690Z,101329.92
2017-06-08T21:03:55.943Z,101326.59
2017-06-08T21:06:22.213Z,101324.47
2017-06-08T21:08:48.453Z,101331.38
2017-06-08T21:11:14.720Z,101336.32
2017-06-08T21:13:41.155Z,101335.55
2017-06-08T21:17:37.408Z,101325.72
2017-06-08T21:20:03.701Z,101324.77
2017-06-08T21:22:30.067Z,101327.45
2017-06-08T21:24:56.443Z,101321.89
2017-06-08T21:27:22.724Z,101322.00
2017-06-08T21:29:48.979Z,101323.77
2017-06-08T21:32:15.214Z,101319.51
2017-06-08T21:34:41.655Z,101319.88
2017-06-08T21:37:07.999Z,101310.84
2017-06-08T21:39:34.337Z,101303.81
2017-06-08T21:42:00.572Z,101302.21
2017-06-08T21:44:26.821Z,101292.52
2017-06-08T21:46:53.075Z,101297.75
2017-06-08T21:49:19.314Z,101292.86
2017-06-08T21:51:45.584Z,101295.27
2017-06-08T21:54:11.863Z,101287.73
2017-06-08T21:56:38.276Z,101282.77
2017-06-08T21:59:04.526Z,101278.81
2017-06-08T22:01:30.871Z,101265.00
2017-06-08T22:03:57.101Z,101258.24
2017-06-08T22:06:23.363Z,101270.97
2017-06-08T22:08:49.632Z,101258.53
2017-06-08T22:11:16.000Z,101257.62
2017-06-08T22:13:42.490Z,101253.74
2017-06-08T22:17:37.087Z,101244.72
2017-06-08T22:20:03.331Z,101245.38
2017-06-08T22:22:29.669Z,101242.77
2017-06-08T22:24:56.007Z,101232.59
2017-06-08T22:27:22.245Z,101236.05
2017-06-08T22:29:48.491Z,101238.46
2017-06-08T22:32:14.843Z,101232.45
2017-06-08T22:34:41.167Z,101235.28
2017-06-08T22:37:07.406Z,101225.80
2017-06-08T22:39:33.672Z,101223.89
2017-06-08T22:41:59.903Z,101214.55
2017-06-08T22:44:26.143Z,101220.56
2017-06-08T22:46:52.878Z,101208.81
2017-06-08T22:49:19.235Z,101211.03
2017-06-08T22:51:45.473Z,101206.10
2017-06-08T22:54:11.812Z,101206.99
2017-06-08T22:56:38.114Z,101211.02
2017-06-08T22:59:04.355Z,101204.22
2017-06-08T23:01:30.584Z,101192.30
2017-06-08T23:03:56.867Z,101197.84
2017-06-08T23:06:23.105Z,101185.56
2017-06-08T23:08:49.364Z,101196.97
2017-06-08T23:11:15.702Z,101199.98
2017-06-08T23:13:41.966Z,101198.71
2017-06-08T23:17:36.294Z,101177.66
2017-06-08T23:20:02.564Z,101181.82
2017-06-08T23:22:28.881Z,101181.19
2017-06-08T23:24:55.134Z,101178.66
2017-06-08T23:27:21.407Z,101176.41
2017-06-08T23:29:47.649Z,101172.97
2017-06-08T23:32:13.888Z,101173.11
2017-06-08T23:34:40.207Z,101174.88
2017-06-08T23:37:06.453Z,101171.30
2017-06-08T23:39:32.698Z,101165.49
2017-06-08T23:41:59.016Z,101161.21
2017-06-08T23:44:25.342Z,101159.61
2017-06-08T23:46:51.591Z,101155.28
2017-06-08T23:49:17.860Z,101147.42
2017-06-08T23:51:44.224Z,101139.33
2017-06-08T23:54:10.483Z,101132.80
2017-06-08T23:56:36.719Z,101126.54
2017-06-08T23:59:02.963Z,101129.86
